Time;durP1;ratioP1;P1;durP2;ratioP2;P2;SDS_P1;SDS_P2;PMS_P1;PMS_P2;Temp;Humidity;BMP_temperature;BMP_pressure;BME280_temperature;BME280_humidity;BME280_pressure;Samples;Min_cycle;Max_cycle;Signal;HPM_P1;HPM_P2
2022/04/10 00:02:41;;;;;;;7.38;1.80;;;2.50;99.90;;;;;;15477537;22;20918;-85
2022/04/10 00:08:43;;;;;;;14.60;1.80;;;2.50;99.90;;;;;;15474942;23;20076;-87
2022/04/10 00:14:45;;;;;;;6.70;2.20;;;2.40;99.90;;;;;;15479246;22;20627;-85
2022/04/10 00:20:47;;;;;;;10.40;1.92;;;2.50;99.90;;;;;;15502205;22;20640;-85
2022/04/10 00:26:50;;;;;;;8.80;2.20;;;2.40;99.90;;;;;;15474903;22;20108;-86
2022/04/10 00:32:52;;;;;;;8.23;2.67;;;2.30;99.90;;;;;;15477620;22;20482;-86
2022/04/10 00:38:54;;;;;;;7.90;1.80;;;2.20;99.90;;;;;;15475637;23;20020;-85
2022/04/10 00:44:56;;;;;;;13.23;2.30;;;2.20;99.90;;;;;;15480818;23;20032;-88
2022/04/10 00:57:20;;;;;;;11.60;2.53;;;2.00;99.90;;;;;;15479700;23;20024;-85
2022/04/10 01:03:22;;;;;;;8.02;2.40;;;2.00;99.90;;;;;;15482069;22;20076;-88
2022/04/10 01:09:24;;;;;;;11.82;3.00;;;2.10;99.90;;;;;;15474068;23;20020;-86
2022/04/10 01:15:26;;;;;;;10.38;2.22;;;2.10;99.90;;;;;;15478890;23;20800;-87
2022/04/10 01:21:30;;;;;;;6.32;1.77;;;2.00;99.90;;;;;;15486645;22;20125;-88
2022/04/10 01:27:40;;;;;;;7.68;2.67;;;2.00;99.90;;;;;;15633116;22;20063;-85
2022/04/10 01:33:42;;;;;;;10.88;2.50;;;2.10;99.90;;;;;;15606565;22;20023;-87
2022/04/10 01:39:43;;;;;;;8.63;2.15;;;2.00;99.90;;;;;;15633695;22;20023;-87
2022/04/10 01:45:45;;;;;;;20.02;4.10;;;2.10;99.90;;;;;;15639104;22;20023;-87
2022/04/10 01:51:47;;;;;;;8.25;2.30;;;2.20;99.90;;;;;;15614570;22;20090;-86
2022/04/10 01:57:49;;;;;;;8.07;2.20;;;2.10;99.90;;;;;;15625158;22;20019;-87
2022/04/10 02:03:51;;;;;;;6.28;2.53;;;2.00;99.90;;;;;;15637477;22;20043;-86
2022/04/10 02:09:53;;;;;;;10.30;2.83;;;1.90;99.90;;;;;;15639527;22;20027;-89
2022/04/10 02:15:55;;;;;;;9.80;2.75;;;1.90;99.90;;;;;;15634791;22;20079;-87
2022/04/10 02:21:59;;;;;;;9.45;2.42;;;1.80;99.90;;;;;;15590393;22;20059;-87
2022/04/10 02:28:01;;;;;;;14.05;3.78;;;1.70;99.90;;;;;;15598577;22;20027;-88
2022/04/10 02:34:03;;;;;;;8.13;2.42;;;1.70;99.90;;;;;;15600075;22;20044;-85
2022/04/10 02:40:07;;;;;;;12.95;2.65;;;1.70;99.90;;;;;;15606669;22;20020;-86
2022/04/10 02:46:08;;;;;;;10.95;2.50;;;1.70;99.90;;;;;;15601484;22;20387;-86
2022/04/10 02:52:11;;;;;;;12.15;2.40;;;1.70;99.90;;;;;;15626856;22;20026;-85
2022/04/10 02:58:13;;;;;;;12.23;2.60;;;1.60;99.90;;;;;;15608784;22;20027;-84
2022/04/10 03:04:14;;;;;;;11.40;2.72;;;1.60;99.90;;;;;;15627950;22;20073;-87
2022/04/10 03:10:16;;;;;;;9.65;2.67;;;1.60;99.90;;;;;;15602204;22;20047;-85
2022/04/10 03:16:19;;;;;;;11.93;2.92;;;1.60;99.90;;;;;;15601166;22;20068;-87
2022/04/10 03:22:20;;;;;;;9.82;2.78;;;1.50;99.90;;;;;;15613995;22;20027;-85
2022/04/10 03:28:22;;;;;;;10.73;3.00;;;1.50;99.90;;;;;;15599749;22;20029;-87
2022/04/10 03:34:24;;;;;;;7.50;2.80;;;1.40;99.90;;;;;;15606733;22;20024;-86
2022/04/10 03:40:26;;;;;;;10.32;3.38;;;1.40;99.90;;;;;;15607932;22;20026;-85
2022/04/10 03:46:28;;;;;;;11.57;3.17;;;1.40;99.90;;;;;;15639360;22;20469;-85
2022/04/10 03:52:31;;;;;;;10.80;2.90;;;1.30;99.90;;;;;;15636156;22;20834;-87
2022/04/10 03:58:33;;;;;;;10.15;3.20;;;1.30;99.90;;;;;;15614835;22;20126;-85
2022/04/10 04:04:37;;;;;;;14.10;4.03;;;1.30;99.90;;;;;;15608431;22;20027;-87
2022/04/10 04:10:38;;;;;;;14.83;4.03;;;1.30;99.90;;;;;;15609470;22;20072;-88
2022/04/10 04:16:40;;;;;;;12.75;3.90;;;1.20;99.90;;;;;;15607462;22;20080;-85
2022/04/10 04:22:42;;;;;;;15.48;3.83;;;1.20;99.90;;;;;;15629981;22;20145;-87
2022/04/10 04:28:44;;;;;;;16.33;4.15;;;1.30;99.90;;;;;;15635904;22;20034;-87
2022/04/10 04:34:47;;;;;;;13.50;3.65;;;1.30;99.90;;;;;;15633723;22;20023;-85
2022/04/10 04:40:49;;;;;;;18.77;4.32;;;1.20;99.90;;;;;;15641007;22;20824;-87
2022/04/10 04:46:51;;;;;;;13.57;4.30;;;1.30;99.90;;;;;;15643227;22;20019;-85
2022/04/10 04:52:53;;;;;;;11.13;3.92;;;1.30;99.90;;;;;;15629763;22;20062;-86
2022/04/10 04:58:55;;;;;;;13.82;3.83;;;1.30;99.90;;;;;;15641376;22;20019;-85
2022/04/10 05:04:57;;;;;;;13.55;3.92;;;1.30;99.90;;;;;;15607493;22;20778;-86
2022/04/10 05:11:00;;;;;;;19.17;4.20;;;1.40;99.90;;;;;;15608046;22;20578;-84
2022/04/10 05:17:01;;;;;;;14.20;4.15;;;1.50;99.90;;;;;;15605017;22;20023;-86
2022/04/10 05:23:03;;;;;;;17.70;5.53;;;2.00;99.90;;;;;;15607798;22;20035;-84
2022/04/10 05:29:05;;;;;;;13.85;3.65;;;2.40;99.90;;;;;;15606932;22;20034;-85
2022/04/10 05:35:08;;;;;;;17.80;3.70;;;2.50;99.90;;;;;;15599790;22;20098;-86
2022/04/10 05:41:10;;;;;;;13.30;3.90;;;2.30;99.90;;;;;;15604830;22;20023;-87
2022/04/10 05:47:12;;;;;;;14.68;4.85;;;2.20;99.90;;;;;;15636498;22;20027;-85
2022/04/10 05:53:14;;;;;;;12.32;4.18;;;2.10;99.90;;;;;;15608258;22;20105;-86
2022/04/10 05:59:16;;;;;;;13.32;3.92;;;2.10;99.90;;;;;;15599982;22;20051;-84
2022/04/10 06:05:19;;;;;;;10.57;3.22;;;2.30;99.90;;;;;;15606487;22;20051;-85
2022/04/10 06:11:21;;;;;;;12.75;3.75;;;2.40;99.90;;;;;;15634490;22;20034;-85
2022/04/10 06:17:23;;;;;;;11.60;3.50;;;2.60;99.90;;;;;;15610269;22;20023;-85
2022/04/10 06:23:25;;;;;;;12.80;3.70;;;2.80;99.90;;;;;;15599477;22;20027;-87
2022/04/10 06:29:27;;;;;;;12.70;3.58;;;3.00;99.90;;;;;;15605801;22;20092;-84
2022/04/10 06:35:29;;;;;;;11.32;3.88;;;3.10;99.90;;;;;;15635932;22;20043;-86
2022/04/10 06:41:30;;;;;;;14.57;3.72;;;3.20;99.90;;;;;;15640986;22;20100;-85
2022/04/10 06:47:32;;;;;;;8.77;3.53;;;3.20;99.90;;;;;;15616658;22;20371;-85
2022/04/10 06:53:34;;;;;;;10.15;3.05;;;3.10;99.90;;;;;;15633186;22;20027;-87
2022/04/10 06:59:36;;;;;;;8.80;2.92;;;3.10;99.90;;;;;;15606590;22;20356;-85
2022/04/10 07:05:39;;;;;;;11.13;3.10;;;3.50;99.90;;;;;;15603874;22;20047;-87
2022/04/10 07:11:42;;;;;;;11.00;2.60;;;3.90;99.90;;;;;;15628496;22;20364;-85
2022/04/10 07:17:44;;;;;;;11.48;2.90;;;4.00;99.90;;;;;;15603893;22;20065;-86
2022/04/10 07:23:46;;;;;;;12.63;2.80;;;3.90;99.90;;;;;;15606098;22;20529;-86
2022/04/10 07:29:47;;;;;;;10.80;2.13;;;4.10;99.90;;;;;;15627150;22;20612;-84
2022/04/10 07:35:49;;;;;;;7.25;2.88;;;4.10;99.90;;;;;;15677743;22;20027;-87
2022/04/10 07:41:51;;;;;;;11.43;2.28;;;4.10;99.90;;;;;;15638584;22;20077;-85
2022/04/10 07:47:53;;;;;;;6.90;2.35;;;4.30;99.90;;;;;;15616879;22;20031;-86
2022/04/10 07:53:56;;;;;;;5.82;2.33;;;4.40;99.90;;;;;;15617562;22;20471;-85
2022/04/10 07:59:58;;;;;;;4.82;1.55;;;4.50;99.90;;;;;;15608210;22;20023;-86
2022/04/10 08:06:00;;;;;;;11.00;2.42;;;4.70;99.90;;;;;;15612078;22;20027;-85
2022/04/10 08:12:02;;;;;;;7.05;1.70;;;4.90;99.90;;;;;;15632332;22;20027;-87
2022/04/10 08:18:03;;;;;;;9.95;2.13;;;4.90;99.90;;;;;;15633293;22;20134;-86
2022/04/10 08:24:08;;;;;;;7.15;1.95;;;4.90;99.90;;;;;;15605136;22;20077;-86
2022/04/10 08:30:10;;;;;;;6.22;1.50;;;5.00;99.90;;;;;;15601326;22;20023;-85
2022/04/10 08:36:12;;;;;;;8.80;2.28;;;5.50;99.90;;;;;;15606154;22;20019;-85
2022/04/10 08:42:14;;;;;;;6.40;1.25;;;5.60;99.90;;;;;;15600077;22;20411;-86
2022/04/10 08:48:18;;;;;;;4.82;1.30;;;5.50;99.90;;;;;;15633091;22;20031;-84
2022/04/10 08:54:20;;;;;;;3.33;1.30;;;5.70;99.90;;;;;;15604285;22;20465;-86
2022/04/10 09:00:23;;;;;;;5.82;1.38;;;5.50;99.90;;;;;;15605703;22;20054;-86
2022/04/10 09:06:25;;;;;;;5.95;1.17;;;5.30;99.90;;;;;;15629782;22;20027;-83
2022/04/10 09:12:27;;;;;;;5.65;1.15;;;5.60;99.90;;;;;;15629229;22;20035;-84
2022/04/10 09:18:49;;;;;;;4.80;1.10;;;5.70;99.90;;;;;;15631924;22;20474;-87
2022/04/10 09:25:09;;;;;;;5.25;1.15;;;6.00;99.90;;;;;;15631236;22;20450;-85
2022/04/10 09:31:31;;;;;;;5.85;1.45;;;5.90;99.90;;;;;;15598247;22;20160;-84
2022/04/10 09:37:51;;;;;;;8.43;1.50;;;6.20;99.90;;;;;;15626013;22;20024;-86
2022/04/10 09:43:58;;;;;;;6.32;1.20;;;6.50;99.90;;;;;;15629297;22;20106;-85
2022/04/10 09:50:06;;;;;;;6.40;1.60;;;6.80;99.90;;;;;;15602971;22;20041;-86
2022/04/10 09:56:08;;;;;;;4.40;1.00;;;7.20;99.90;;;;;;15604290;22;20100;-86
2022/04/10 10:02:21;;;;;;;3.20;0.93;;;7.00;99.90;;;;;;15607476;22;20027;-85
2022/04/10 10:08:24;;;;;;;4.05;1.25;;;6.50;99.90;;;;;;15636139;22;20023;-84
2022/04/10 10:14:30;;;;;;;5.05;1.23;;;6.70;99.90;;;;;;15619063;22;20027;-86
2022/04/10 10:20:33;;;;;;;5.45;1.95;;;6.40;99.90;;;;;;15650108;22;20022;-86
2022/04/10 10:27:02;;;;;;;1.70;0.70;;;6.00;99.90;;;;;;15607043;22;20081;-86
2022/04/10 10:33:18;;;;;;;3.58;0.88;;;5.50;99.90;;;;;;15628927;22;20189;-85
2022/04/10 10:39:22;;;;;;;5.88;1.40;;;5.20;99.90;;;;;;15598145;22;20102;-85
2022/04/10 10:45:41;;;;;;;5.10;1.17;;;5.40;99.90;;;;;;15631498;22;20467;-86
2022/04/10 10:51:47;;;;;;;4.68;1.00;;;5.80;99.90;;;;;;15598115;22;20499;-86
2022/04/10 10:57:49;;;;;;;3.25;1.10;;;5.80;99.90;;;;;;15602337;22;20050;-84
2022/04/10 11:04:04;;;;;;;2.78;1.00;;;5.80;99.90;;;;;;15604553;22;20731;-86
2022/04/10 11:10:10;;;;;;;;;;;6.60;99.90;;;;;;15604987;22;20102;-86
2022/04/10 11:16:13;;;;;;;4.28;0.98;;;6.90;99.90;;;;;;15631548;22;20290;-84
2022/04/10 11:22:21;;;;;;;4.50;1.25;;;7.00;99.90;;;;;;15602228;22;20024;-85
2022/04/10 11:28:24;;;;;;;4.97;1.10;;;7.20;99.90;;;;;;15607896;22;20065;-86
2022/04/10 11:34:28;;;;;;;3.95;0.98;;;7.80;99.90;;;;;;15633218;22;20051;-85
2022/04/10 11:40:32;;;;;;;6.97;1.10;;;8.70;99.90;;;;;;15600017;22;20026;-84
2022/04/10 11:46:35;;;;;;;2.15;0.75;;;8.60;99.90;;;;;;15627038;22;20027;-86
2022/04/10 11:52:37;;;;;;;5.05;1.00;;;7.80;99.90;;;;;;15615762;22;20023;-84
2022/04/10 11:58:39;;;;;;;6.78;1.42;;;7.50;99.90;;;;;;15630375;22;20126;-85
2022/04/10 12:04:42;;;;;;;5.60;0.90;;;7.80;99.90;;;;;;15628311;22;20055;-83
2022/04/10 12:10:55;;;;;;;3.05;0.90;;;7.60;99.90;;;;;;15626764;22;20019;-85
2022/04/10 12:16:57;;;;;;;4.30;0.82;;;7.20;99.90;;;;;;15609828;22;20019;-84
2022/04/10 12:22:59;;;;;;;3.30;1.00;;;7.30;99.90;;;;;;15631498;22;20027;-85
2022/04/10 12:29:02;;;;;;;5.35;1.00;;;7.90;99.90;;;;;;15602127;22;20104;-85
2022/04/10 12:35:12;;;;;;;3.67;0.70;;;8.50;99.90;;;;;;15620808;22;20041;-84
2022/04/10 12:41:14;;;;;;;6.43;0.80;;;9.20;99.90;;;;;;15604712;22;20455;-85
2022/04/10 12:47:46;;;;;;;4.75;0.80;;;9.90;99.90;;;;;;15598029;22;20468;-84
2022/04/10 12:53:51;;;;;;;2.38;0.68;;;9.60;99.90;;;;;;15603024;22;20093;-85
2022/04/10 12:59:56;;;;;;;5.63;1.10;;;8.90;99.90;;;;;;15597738;22;20030;-85
2022/04/10 13:06:02;;;;;;;4.43;1.00;;;8.30;99.90;;;;;;15597524;22;20062;-84
2022/04/10 13:12:05;;;;;;;3.00;0.90;;;9.00;99.90;;;;;;15601705;22;20098;-84
2022/04/10 13:18:07;;;;;;;4.93;1.15;;;9.70;99.90;;;;;;15603136;22;20134;-85
2022/04/10 13:24:09;;;;;;;5.30;1.10;;;10.20;99.90;;;;;;15596497;22;20448;-86
2022/04/10 13:30:11;;;;;;;4.60;0.80;;;10.10;99.90;;;;;;15599871;22;20123;-86
2022/04/10 13:36:14;;;;;;;5.88;0.90;;;10.20;99.90;;;;;;15602830;22;20074;-86
2022/04/10 13:42:16;;;;;;;5.07;0.93;;;9.40;99.90;;;;;;15595312;22;20030;-85
2022/04/10 13:48:17;;;;;;;2.58;0.80;;;8.60;99.90;;;;;;15597136;22;20096;-86
2022/04/10 13:54:19;;;;;;;7.80;1.20;;;8.20;99.90;;;;;;15602740;22;20022;-85
2022/04/10 14:00:21;;;;;;;5.95;1.08;;;8.00;99.90;;;;;;15597259;22;20110;-86
2022/04/10 14:06:24;;;;;;;5.35;1.02;;;8.10;99.90;;;;;;15627448;22;20106;-85
2022/04/10 14:12:28;;;;;;;6.53;1.20;;;9.30;99.90;;;;;;15608896;22;20055;-86
2022/04/10 14:18:29;;;;;;;4.60;1.00;;;8.90;99.90;;;;;;15648941;22;20116;-85
2022/04/10 14:24:32;;;;;;;5.03;1.38;;;8.70;99.90;;;;;;15618159;22;20023;-85
2022/04/10 14:30:34;;;;;;;4.32;0.98;;;8.30;99.90;;;;;;15610702;22;20019;-87
2022/04/10 14:36:38;;;;;;;4.45;1.20;;;8.10;99.90;;;;;;15636989;22;20068;-84
2022/04/10 14:42:40;;;;;;;5.45;1.05;;;7.70;99.90;;;;;;15614830;22;20023;-86
2022/04/10 14:48:41;;;;;;;4.40;0.95;;;7.40;99.90;;;;;;15643591;22;20035;-87
2022/04/10 14:54:49;;;;;;;6.88;1.33;;;7.00;99.90;;;;;;15613473;22;20027;-85
2022/04/10 15:00:51;;;;;;;4.13;0.95;;;7.10;99.90;;;;;;15643227;22;20015;-87
2022/04/10 15:06:53;;;;;;;5.32;1.13;;;7.00;99.90;;;;;;15617810;22;20027;-88
2022/04/10 15:12:56;;;;;;;2.40;0.90;;;6.90;99.90;;;;;;15602350;22;20039;-88
2022/04/10 15:18:58;;;;;;;5.00;1.00;;;7.00;99.90;;;;;;15634508;22;20019;-85
2022/04/10 15:25:00;;;;;;;4.43;1.08;;;7.00;99.90;;;;;;15646584;22;20027;-87
2022/04/10 15:31:05;;;;;;;5.80;0.98;;;7.80;99.90;;;;;;15631328;22;20031;-88
2022/04/10 15:37:07;;;;;;;5.60;1.30;;;7.90;99.90;;;;;;15607409;22;20015;-85
2022/04/10 15:43:09;;;;;;;5.20;1.35;;;7.70;99.90;;;;;;15604307;22;20165;-87
2022/04/10 15:49:11;;;;;;;4.25;1.05;;;7.90;99.90;;;;;;15605130;22;20106;-85
2022/04/10 15:55:17;;;;;;;3.40;1.25;;;7.50;99.90;;;;;;15605603;22;20185;-88
2022/04/10 16:01:19;;;;;;;2.38;0.90;;;7.40;99.90;;;;;;15607351;22;20097;-86
2022/04/10 16:07:21;;;;;;;5.15;1.15;;;8.00;99.90;;;;;;15605463;22;20054;-85
2022/04/10 16:13:23;;;;;;;4.80;1.10;;;7.80;99.90;;;;;;15629883;22;20726;-86
2022/04/10 16:19:25;;;;;;;2.13;1.15;;;7.40;99.90;;;;;;15606311;22;20023;-87
2022/04/10 16:25:27;;;;;;;9.02;2.08;;;7.00;99.90;;;;;;15630344;22;20027;-87
2022/04/10 16:31:29;;;;;;;7.13;2.50;;;6.70;99.90;;;;;;15599068;22;20068;-85
2022/04/10 16:37:31;;;;;;;9.27;2.42;;;6.60;99.90;;;;;;15602234;22;20026;-87
2022/04/10 16:43:33;;;;;;;5.20;1.52;;;6.50;99.90;;;;;;15625479;22;20034;-86
2022/04/10 16:49:35;;;;;;;5.25;1.10;;;6.50;99.90;;;;;;15603663;22;20062;-87
2022/04/10 16:55:36;;;;;;;4.72;1.00;;;6.50;99.90;;;;;;15601748;22;20057;-87
2022/04/10 17:01:38;;;;;;;4.70;1.40;;;6.70;99.90;;;;;;15629132;22;20030;-86
2022/04/10 17:07:41;;;;;;;6.05;1.35;;;7.30;99.90;;;;;;15605359;22;20052;-87
2022/04/10 17:13:42;;;;;;;4.45;1.08;;;7.60;99.90;;;;;;15610436;22;20114;-85
2022/04/10 17:19:44;;;;;;;3.92;1.23;;;7.30;99.90;;;;;;15628306;22;20061;-87
2022/04/10 17:25:46;;;;;;;3.15;0.80;;;7.10;99.90;;;;;;15599202;22;20487;-85
2022/04/10 17:31:48;;;;;;;3.08;1.02;;;6.80;99.90;;;;;;15604697;22;20090;-85
2022/04/10 17:37:52;;;;;;;3.50;1.30;;;6.50;99.90;;;;;;15606608;22;20019;-85
2022/04/10 17:43:55;;;;;;;4.47;1.02;;;6.20;99.90;;;;;;15660163;22;20011;-86
2022/04/10 17:49:57;;;;;;;4.93;1.42;;;5.80;99.90;;;;;;15651324;22;20842;-86
2022/04/10 17:55:59;;;;;;;4.82;1.33;;;5.50;99.90;;;;;;15607453;22;20111;-87
2022/04/10 18:02:01;;;;;;;5.20;1.35;;;5.30;99.90;;;;;;15629109;22;20144;-85
2022/04/10 18:08:04;;;;;;;6.32;1.30;;;5.10;99.90;;;;;;15621481;22;20447;-85
2022/04/10 18:14:06;;;;;;;5.30;1.20;;;4.90;99.90;;;;;;15599344;22;20023;-87
2022/04/10 18:20:08;;;;;;;7.18;1.27;;;4.90;99.90;;;;;;15603960;22;20023;-85
2022/04/10 18:26:14;;;;;;;3.92;1.13;;;4.70;99.90;;;;;;15599065;22;20097;-85
2022/04/10 18:32:16;;;;;;;4.40;1.33;;;4.70;99.90;;;;;;15598552;22;20068;-87
2022/04/10 18:38:17;;;;;;;3.90;1.10;;;4.70;99.90;;;;;;15602928;22;20020;-87
2022/04/10 18:44:20;;;;;;;4.63;1.60;;;4.50;99.90;;;;;;15630512;22;20479;-85
2022/04/10 18:50:22;;;;;;;4.25;1.20;;;4.60;99.90;;;;;;15628907;22;20039;-85
2022/04/10 18:56:23;;;;;;;6.70;1.13;;;4.60;99.90;;;;;;15629105;22;20023;-86
2022/04/10 19:02:26;;;;;;;9.82;2.97;;;4.40;99.90;;;;;;15605186;22;20055;-86
2022/04/10 19:08:28;;;;;;;6.38;1.77;;;4.30;99.90;;;;;;15603472;22;20046;-85
2022/04/10 19:14:30;;;;;;;4.75;1.70;;;4.20;99.90;;;;;;15632904;22;20027;-85
2022/04/10 19:20:32;;;;;;;4.47;1.30;;;4.30;99.90;;;;;;15611437;22;20038;-88
2022/04/10 19:26:34;;;;;;;5.88;1.83;;;4.30;99.90;;;;;;15604981;22;20027;-88
2022/04/10 19:32:36;;;;;;;4.43;1.80;;;4.40;99.90;;;;;;15606789;22;20023;-88
2022/04/10 19:38:39;;;;;;;7.25;1.50;;;4.40;99.90;;;;;;15608516;22;20030;-85
2022/04/10 19:44:41;;;;;;;4.60;1.65;;;4.50;99.90;;;;;;15633410;22;20073;-85
2022/04/10 19:50:43;;;;;;;6.20;1.50;;;4.50;99.90;;;;;;15634315;22;20022;-88
2022/04/10 19:56:45;;;;;;;5.03;1.70;;;4.40;99.90;;;;;;15608675;22;20039;-85
2022/04/10 20:02:46;;;;;;;6.43;1.42;;;4.30;99.90;;;;;;15602344;22;20016;-88
2022/04/10 20:08:48;;;;;;;6.43;1.63;;;4.20;99.90;;;;;;15631653;22;20293;-85
2022/04/10 20:14:50;;;;;;;4.78;1.70;;;4.20;99.90;;;;;;15611024;22;20019;-85
2022/04/10 20:20:53;;;;;;;3.88;1.23;;;4.20;99.90;;;;;;15610048;22;20015;-85
2022/04/10 20:26:55;;;;;;;4.18;1.40;;;4.20;99.90;;;;;;15628455;22;20362;-85
2022/04/10 20:32:58;;;;;;;4.68;1.60;;;4.10;99.90;;;;;;15608705;22;20030;-84
2022/04/10 20:39:00;;;;;;;4.38;1.40;;;4.10;99.90;;;;;;15605393;22;20638;-88
2022/04/10 20:45:02;;;;;;;3.40;1.65;;;4.10;99.90;;;;;;15604976;22;20023;-87
2022/04/10 20:51:04;;;;;;;8.35;1.48;;;4.20;99.90;;;;;;15606286;22;20093;-85
2022/04/10 20:57:06;;;;;;;7.63;1.95;;;4.20;99.90;;;;;;15603824;22;20026;-84
2022/04/10 21:03:10;;;;;;;5.60;1.70;;;4.10;99.90;;;;;;15605129;22;20027;-87
2022/04/10 21:09:12;;;;;;;4.40;1.50;;;4.10;99.90;;;;;;15634719;22;20034;-85
2022/04/10 21:15:15;;;;;;;4.97;1.60;;;4.00;99.90;;;;;;15606675;22;20172;-85
2022/04/10 21:21:16;;;;;;;5.53;1.50;;;4.00;99.90;;;;;;15625002;22;20023;-84
2022/04/10 21:27:18;;;;;;;4.93;1.90;;;4.00;99.90;;;;;;15666925;22;20027;-88
2022/04/10 21:33:21;;;;;;;9.70;1.98;;;3.80;99.90;;;;;;15613096;22;20541;-88
2022/04/10 21:39:23;;;;;;;4.15;1.88;;;3.80;99.90;;;;;;15613516;22;20023;-84
2022/04/10 21:45:27;;;;;;;5.70;1.77;;;3.70;99.90;;;;;;15631632;22;20088;-87
2022/04/10 21:51:29;;;;;;;4.53;1.92;;;3.60;99.90;;;;;;15609189;22;20042;-84
2022/04/10 21:57:31;;;;;;;5.57;2.20;;;3.50;99.90;;;;;;15608390;22;20528;-84
2022/04/10 22:03:33;;;;;;;6.05;2.13;;;3.40;99.90;;;;;;15605101;22;20519;-87
2022/04/10 22:09:35;;;;;;;6.22;2.22;;;3.20;99.90;;;;;;15631442;22;20125;-87
2022/04/10 22:15:42;;;;;;;5.80;2.40;;;3.20;99.90;;;;;;15634481;22;20027;-87
2022/04/10 22:21:43;;;;;;;4.68;2.38;;;3.20;99.90;;;;;;15604230;22;20466;-87
2022/04/10 22:27:45;;;;;;;6.68;2.58;;;3.10;99.90;;;;;;15627649;22;20058;-84
2022/04/10 22:33:47;;;;;;;7.50;3.33;;;3.10;99.90;;;;;;15631270;22;20406;-87
2022/04/10 22:39:49;;;;;;;9.02;3.58;;;3.00;99.90;;;;;;15604036;22;20519;-84
2022/04/10 22:45:51;;;;;;;7.53;3.10;;;3.00;99.90;;;;;;15606058;22;20069;-84
2022/04/10 22:51:53;;;;;;;4.70;2.55;;;3.00;99.90;;;;;;15608829;22;20027;-84
2022/04/10 22:57:54;;;;;;;6.75;2.55;;;3.00;99.90;;;;;;15606265;22;20020;-84
2022/04/10 23:03:57;;;;;;;5.43;2.25;;;2.90;99.90;;;;;;15607366;22;20468;-87
2022/04/10 23:09:59;;;;;;;7.10;2.50;;;2.90;99.90;;;;;;15608444;22;20031;-86
2022/04/10 23:16:01;;;;;;;4.93;2.25;;;2.80;99.90;;;;;;15639914;22;20023;-86
2022/04/10 23:22:03;;;;;;;4.65;2.20;;;2.70;99.90;;;;;;15612352;22;20027;-84
2022/04/10 23:28:05;;;;;;;4.78;2.55;;;2.70;99.90;;;;;;15615768;22;20063;-84
2022/04/10 23:34:07;;;;;;;4.55;2.38;;;2.60;99.90;;;;;;15669406;22;20042;-84
2022/04/10 23:40:09;;;;;;;6.43;2.63;;;2.50;99.90;;;;;;15646051;22;20031;-86
2022/04/10 23:46:11;;;;;;;8.50;2.72;;;2.50;99.90;;;;;;15614449;22;20051;-87
2022/04/10 23:52:13;;;;;;;10.60;3.10;;;2.50;99.90;;;;;;15615642;22;20098;-84
2022/04/10 23:58:15;;;;;;;6.10;2.60;;;2.50;99.90;;;;;;15606057;22;20019;-87
